createdAt,value
2023-01-26T00:01:19.764Z,-1.60
2023-01-26T00:03:46.654Z,-1.60
2023-01-26T00:06:15.771Z,-1.70
2023-01-26T00:08:45.014Z,-1.70
2023-01-26T00:11:14.333Z,-1.80
2023-01-26T00:13:41.577Z,-1.80
2023-01-26T00:16:11.008Z,-1.70
2023-01-26T00:18:39.136Z,-1.60
2023-01-26T00:21:07.254Z,-1.60
2023-01-26T00:23:36.456Z,-1.60
2023-01-26T00:26:06.636Z,-1.70
2023-01-26T00:28:33.638Z,-1.80
2023-01-26T00:31:08.578Z,-1.70
2023-01-26T00:33:35.313Z,-1.80
2023-01-26T00:36:02.093Z,-1.70
2023-01-26T00:38:28.875Z,-1.60
2023-01-26T00:40:55.671Z,-1.60
2023-01-26T00:43:22.388Z,-1.80
2023-01-26T00:45:49.394Z,-1.70
2023-01-26T00:48:16.686Z,-1.60
2023-01-26T00:50:43.438Z,-1.60
2023-01-26T00:53:10.800Z,-1.80
2023-01-26T00:55:37.790Z,-1.90
2023-01-26T00:58:06.800Z,-2.00
2023-01-26T01:00:35.276Z,-1.80
2023-01-26T01:03:02.376Z,-1.80
2023-01-26T01:05:31.183Z,-1.60
2023-01-26T01:07:58.515Z,-1.50
2023-01-26T01:10:27.513Z,-1.50
2023-01-26T01:12:54.806Z,-1.60
2023-01-26T01:15:21.529Z,-1.40
2023-01-26T01:17:48.670Z,-1.50
2023-01-26T01:20:15.923Z,-1.30
2023-01-26T01:22:42.767Z,-1.40
2023-01-26T01:25:09.671Z,-1.50
2023-01-26T01:27:36.411Z,-1.40
2023-01-26T01:30:07.635Z,-1.30
2023-01-26T01:32:40.059Z,-1.20
2023-01-26T01:35:07.599Z,-1.10
2023-01-26T01:37:34.672Z,-1.10
2023-01-26T01:40:01.435Z,-1.20
2023-01-26T01:42:28.556Z,-1.30
2023-01-26T01:45:30.374Z,-1.30
2023-01-26T01:48:00.210Z,-1.30
2023-01-26T01:50:27.772Z,-1.30
2023-01-26T01:52:56.121Z,-1.30
2023-01-26T01:55:25.537Z,-1.10
2023-01-26T01:58:00.805Z,-1.00
2023-01-26T02:00:28.052Z,-1.00
2023-01-26T02:03:11.179Z,-1.00
2023-01-26T02:05:47.235Z,-1.10
2023-01-26T02:08:14.597Z,-1.10
2023-01-26T02:10:43.691Z,-1.20
2023-01-26T02:13:11.434Z,-1.20
2023-01-26T02:15:38.612Z,-1.10
2023-01-26T02:18:05.779Z,-1.00
2023-01-26T02:20:41.389Z,-1.10
2023-01-26T02:23:30.172Z,-1.00
2023-01-26T02:26:16.471Z,-1.10
2023-01-26T02:28:45.160Z,-1.00
2023-01-26T02:31:13.334Z,-1.10
2023-01-26T02:33:41.210Z,-1.10
2023-01-26T02:36:17.848Z,-1.00
2023-01-26T02:38:48.952Z,-1.10
2023-01-26T02:41:39.665Z,-1.10
2023-01-26T02:44:10.388Z,-1.00
2023-01-26T02:46:37.197Z,-1.10
2023-01-26T02:49:22.858Z,-1.20
2023-01-26T02:51:49.660Z,-1.30
2023-01-26T02:54:34.877Z,-1.30
2023-01-26T02:57:02.030Z,-1.20
2023-01-26T02:59:28.812Z,-1.10
2023-01-26T03:01:57.520Z,-0.90
2023-01-26T03:04:24.497Z,-1.00
2023-01-26T03:06:51.227Z,-1.10
2023-01-26T03:09:17.952Z,-1.20
2023-01-26T03:11:44.747Z,-1.10
2023-01-26T03:14:15.298Z,-1.10
2023-01-26T03:16:42.515Z,-1.10
2023-01-26T03:19:31.702Z,-1.00
2023-01-26T03:22:17.884Z,-1.00
2023-01-26T03:25:03.275Z,-1.00
2023-01-26T03:27:34.661Z,-0.90
2023-01-26T03:30:01.389Z,-0.80
2023-01-26T03:32:28.129Z,-0.90
2023-01-26T03:34:54.852Z,-1.00
2023-01-26T03:37:22.742Z,-0.90
2023-01-26T03:40:10.857Z,-1.00
2023-01-26T03:42:56.569Z,-1.20
2023-01-26T03:45:41.993Z,-1.00
2023-01-26T03:48:30.059Z,-1.20
2023-01-26T03:51:16.310Z,-1.10
2023-01-26T03:54:02.424Z,-1.20
2023-01-26T03:56:32.981Z,-1.30
2023-01-26T03:59:08.475Z,-1.40
2023-01-26T04:02:03.141Z,-1.30
2023-01-26T04:04:48.516Z,-1.10
2023-01-26T04:07:33.803Z,-1.00
2023-01-26T04:10:00.838Z,-1.20
2023-01-26T04:12:27.507Z,-1.20
2023-01-26T04:15:13.097Z,-1.20
2023-01-26T04:17:58.463Z,-1.30
2023-01-26T04:20:43.740Z,-1.40
2023-01-26T04:23:20.808Z,-1.30
2023-01-26T04:25:50.257Z,-1.40
2023-01-26T04:28:16.972Z,-1.50
2023-01-26T04:30:43.761Z,-1.50
2023-01-26T04:33:10.711Z,-1.50
2023-01-26T04:35:37.460Z,-1.40
2023-01-26T04:38:04.154Z,-1.20
2023-01-26T04:40:30.898Z,-1.10
2023-01-26T04:42:57.598Z,-1.10
2023-01-26T04:45:24.281Z,-1.10
2023-01-26T04:47:51.045Z,-1.20
2023-01-26T04:50:17.811Z,-1.50
2023-01-26T04:52:44.594Z,-1.40
2023-01-26T04:55:11.366Z,-1.40
2023-01-26T04:57:38.378Z,-1.30
2023-01-26T05:00:05.930Z,-1.10
2023-01-26T05:02:32.755Z,-1.10
2023-01-26T11:13:18.422Z,0.70
2023-01-26T11:15:52.336Z,1.50
2023-01-26T11:18:37.662Z,1.90
2023-01-26T11:21:11.799Z,1.90
2023-01-26T11:23:54.079Z,1.60
2023-01-26T11:26:34.491Z,1.30
2023-01-26T11:29:26.334Z,1.30
2023-01-26T11:32:30.367Z,1.30
2023-01-26T11:35:05.435Z,1.10
2023-01-26T11:37:42.703Z,1.20
2023-01-26T11:40:25.347Z,1.20
2023-01-26T11:43:15.429Z,1.30
2023-01-26T11:46:24.478Z,1.40
2023-01-26T11:49:23.977Z,1.50
2023-01-26T11:51:56.513Z,1.60
2023-01-26T11:54:55.553Z,1.50
2023-01-26T11:57:53.328Z,1.20
2023-01-26T12:00:30.396Z,1.10
2023-01-26T12:03:06.101Z,0.90
2023-01-26T12:05:46.062Z,1.10
2023-01-26T12:08:18.640Z,1.20
2023-01-26T12:11:22.190Z,1.10
2023-01-26T12:13:58.005Z,0.90
2023-01-26T12:16:42.949Z,1.00
2023-01-26T12:19:12.509Z,1.10
2023-01-26T12:21:44.081Z,0.90
2023-01-26T12:24:48.323Z,0.90
2023-01-26T12:27:14.412Z,1.00
2023-01-26T12:29:51.725Z,1.10
2023-01-26T12:47:26.139Z,1.00
2023-01-26T12:47:26.319Z,0.90
2023-01-26T12:50:01.783Z,1.00
2023-01-26T12:52:37.413Z,0.90
2023-01-26T12:55:22.048Z,0.80
2023-01-26T12:58:04.577Z,0.70
2023-01-26T13:00:37.243Z,0.70
2023-01-26T13:03:28.377Z,0.50
2023-01-26T13:05:58.730Z,0.60
2023-01-26T13:08:31.208Z,0.60
2023-01-26T13:10:59.873Z,0.40
2023-01-26T13:13:28.733Z,0.40
2023-01-26T13:19:43.496Z,0.40
2023-01-26T13:22:19.418Z,0.50
2023-01-26T13:24:48.931Z,0.50
2023-01-26T13:27:40.401Z,0.50
2023-01-26T13:30:22.743Z,0.40
2023-01-26T13:33:10.841Z,0.30
2023-01-26T13:35:38.729Z,0.40
2023-01-26T13:38:10.680Z,0.50
2023-01-26T13:40:42.531Z,0.50
2023-01-26T13:43:39.756Z,0.50
2023-01-26T13:46:54.433Z,0.40
2023-01-26T13:49:27.239Z,0.30
2023-01-26T13:51:54.324Z,0.30
2023-01-26T13:54:23.280Z,0.30
2023-01-26T13:57:07.159Z,0.20
2023-01-26T13:59:36.713Z,0.00
2023-01-26T14:02:11.039Z,0.10
2023-01-26T14:04:37.848Z,0.10
2023-01-26T14:07:09.913Z,0.00
2023-01-26T14:09:49.800Z,0.00
2023-01-26T14:12:25.741Z,0.10
2023-01-26T14:14:57.318Z,0.10
2023-01-26T14:17:33.343Z,0.00
2023-01-26T14:20:00.455Z,0.00
2023-01-26T14:22:28.028Z,0.00
2023-01-26T14:24:55.477Z,-0.10
2023-01-26T14:27:24.921Z,-0.10
2023-01-26T14:29:51.657Z,0.00
2023-01-26T14:32:18.627Z,0.10
2023-01-26T14:34:59.907Z,0.10
2023-01-26T14:37:28.118Z,-0.10
2023-01-26T14:40:25.767Z,-0.20
2023-01-26T14:42:53.559Z,-0.30
2023-01-26T14:45:33.043Z,-0.20
2023-01-26T14:48:05.189Z,-0.40
2023-01-26T14:50:32.421Z,-0.40
2023-01-26T14:53:03.182Z,-0.20
2023-01-26T14:55:36.146Z,-0.20
2023-01-26T14:58:12.883Z,-0.20
2023-01-26T15:00:39.687Z,-0.20
2023-01-26T15:03:19.318Z,-0.10
2023-01-26T15:05:46.052Z,-0.10
2023-01-26T15:08:21.940Z,0.00
2023-01-26T15:11:18.972Z,-0.10
2023-01-26T15:13:53.342Z,-0.10
2023-01-26T15:16:23.051Z,-0.30
2023-01-26T15:19:08.071Z,-0.20
2023-01-26T15:21:40.346Z,-0.30
2023-01-26T15:24:13.847Z,-0.20
2023-01-26T15:26:41.405Z,-0.10
2023-01-26T15:29:28.455Z,0.00
2023-01-26T15:31:57.419Z,-0.10
2023-01-26T15:34:38.596Z,-0.10
2023-01-26T15:37:29.709Z,0.10
2023-01-26T15:39:56.968Z,0.10
2023-01-26T15:42:33.483Z,0.00
2023-01-26T15:45:06.689Z,0.00
2023-01-26T15:47:33.478Z,-0.10
2023-01-26T15:50:00.297Z,-0.10
2023-01-26T15:52:30.438Z,0.00
2023-01-26T15:54:57.325Z,-0.10
2023-01-26T15:57:24.030Z,-0.10
2023-01-26T15:59:50.762Z,-0.20
2023-01-26T16:02:20.402Z,-0.30
2023-01-26T16:04:47.382Z,-0.30
2023-01-26T16:07:18.732Z,-0.30
2023-01-26T16:09:45.565Z,-0.30
2023-01-26T16:12:30.455Z,-0.20
2023-01-26T16:14:58.189Z,-0.20
2023-01-26T16:17:25.019Z,-0.20
2023-01-26T16:19:51.758Z,-0.30
2023-01-26T16:22:18.546Z,-0.30
2023-01-26T16:24:46.493Z,-0.40
2023-01-26T16:27:22.795Z,-0.30
2023-01-26T16:29:49.528Z,-0.30
2023-01-26T16:32:28.454Z,-0.40
2023-01-26T16:34:55.205Z,-0.30
2023-01-26T16:37:24.551Z,-0.30
2023-01-26T16:39:51.301Z,-0.30
2023-01-26T16:42:21.241Z,-0.30
2023-01-26T16:44:48.338Z,-0.40
2023-01-26T16:47:15.214Z,-0.30
2023-01-26T16:49:41.930Z,-0.40
2023-01-26T16:52:09.447Z,-0.50
2023-01-26T16:54:36.278Z,-0.40
2023-01-26T16:57:03.075Z,-0.30
2023-01-26T16:59:30.042Z,-0.20
2023-01-26T17:01:57.201Z,-0.20
2023-01-26T17:04:24.014Z,-0.20
2023-01-26T17:06:51.671Z,-0.20
2023-01-26T17:09:18.413Z,-0.20
2023-01-26T17:11:45.253Z,-0.30
2023-01-26T17:14:12.931Z,-0.30
2023-01-26T17:16:39.775Z,-0.20
2023-01-26T17:19:08.966Z,-0.20
2023-01-26T17:21:36.078Z,-0.10
2023-01-26T17:24:03.012Z,-0.20
2023-01-26T17:26:29.821Z,-0.20
2023-01-26T17:28:56.700Z,-0.30
2023-01-26T17:31:25.652Z,-0.20
2023-01-26T17:33:55.830Z,-0.30
2023-01-26T17:36:23.198Z,-0.30
2023-01-26T17:38:54.803Z,-0.30
2023-01-26T17:41:21.764Z,-0.20
2023-01-26T17:43:48.655Z,-0.30
2023-01-26T17:46:20.163Z,-0.40
2023-01-26T17:48:47.666Z,-0.30
2023-01-26T17:51:19.208Z,-0.20
2023-01-26T17:53:50.444Z,-0.10
2023-01-26T17:56:20.190Z,-0.10
2023-01-26T17:58:52.376Z,-0.10
2023-01-26T18:01:20.717Z,-0.10
2023-01-26T18:03:48.298Z,-0.10
2023-01-26T18:06:15.441Z,-0.10
2023-01-26T18:08:42.507Z,-0.30
2023-01-26T18:11:12.283Z,-0.30
2023-01-26T18:13:39.303Z,-0.20
2023-01-26T18:16:23.245Z,-0.30
2023-01-26T18:18:58.210Z,-0.30
2023-01-26T18:21:27.260Z,-0.30
2023-01-26T18:23:55.986Z,-0.20
2023-01-26T18:26:25.040Z,-0.30
2023-01-26T18:28:52.375Z,-0.30
2023-01-26T18:31:24.133Z,-0.30
2023-01-26T18:33:51.264Z,-0.20
2023-01-26T18:36:20.376Z,-0.30
2023-01-26T18:38:53.073Z,-0.30
2023-01-26T18:41:22.249Z,-0.20
2023-01-26T18:43:53.846Z,-0.10
2023-01-26T18:46:22.031Z,0.00
2023-01-26T18:48:49.560Z,0.10
2023-01-26T18:51:18.231Z,0.00
2023-01-26T18:53:49.741Z,0.00
2023-01-26T18:56:17.255Z,0.00
2023-01-26T18:58:44.502Z,0.00
2023-01-26T19:01:15.975Z,0.10
2023-01-26T19:03:47.681Z,0.10
2023-01-26T19:06:19.985Z,0.00
2023-01-26T19:08:48.252Z,0.00
2023-01-26T19:11:15.381Z,0.00
2023-01-26T19:13:43.417Z,0.00
2023-01-26T19:16:10.278Z,0.10
2023-01-26T19:18:37.139Z,0.10
2023-01-26T19:21:05.158Z,0.10
2023-01-26T19:23:33.048Z,0.10
2023-01-26T19:26:00.047Z,0.20
2023-01-26T19:28:26.830Z,0.30
2023-01-26T19:31:02.244Z,0.30
2023-01-26T19:33:29.293Z,0.20
2023-01-26T19:35:56.511Z,0.20
2023-01-26T19:38:25.889Z,0.10
2023-01-26T19:40:53.196Z,0.20
2023-01-26T19:43:21.410Z,0.30
2023-01-26T19:45:49.838Z,0.40
2023-01-26T19:48:16.724Z,0.30
2023-01-26T19:50:43.497Z,0.20
2023-01-26T19:53:13.455Z,0.10
2023-01-26T19:55:40.156Z,0.10
2023-01-26T19:58:07.068Z,0.00
2023-01-26T20:00:33.794Z,-0.10
2023-01-26T20:03:00.751Z,-0.10
2023-01-26T20:05:27.531Z,0.00
2023-01-26T20:07:54.399Z,0.20
2023-01-26T20:10:21.135Z,0.20
2023-01-26T20:12:47.875Z,0.20
2023-01-26T20:15:14.973Z,0.20
2023-01-26T20:17:42.972Z,0.20
2023-01-26T20:20:12.346Z,0.10
2023-01-26T20:22:40.336Z,0.30
2023-01-26T20:25:07.852Z,0.30
2023-01-26T20:27:38.201Z,0.20
2023-01-26T20:30:06.253Z,0.10
2023-01-26T20:32:34.761Z,0.10
2023-01-26T20:35:02.359Z,0.00
2023-01-26T20:37:29.662Z,0.00
2023-01-26T20:39:56.595Z,0.10
2023-01-26T20:42:23.671Z,0.10
2023-01-26T20:44:51.046Z,0.10
2023-01-26T20:47:17.933Z,0.00
2023-01-26T20:49:45.025Z,0.00
2023-01-26T20:52:11.918Z,0.10
2023-01-26T20:54:45.343Z,0.10
2023-01-26T20:57:15.039Z,0.00
2023-01-26T20:59:42.415Z,0.00
2023-01-26T21:02:14.559Z,-0.10
2023-01-26T21:04:41.725Z,0.00
2023-01-26T21:07:11.755Z,-0.10
2023-01-26T21:09:41.356Z,-0.10
2023-01-26T21:12:11.192Z,-0.20
2023-01-26T21:14:37.887Z,-0.30
2023-01-26T21:17:04.675Z,-0.40
2023-01-26T21:19:31.606Z,-0.30
2023-01-26T21:21:59.475Z,-0.10
2023-01-26T21:24:26.430Z,-0.10
2023-01-26T21:26:53.487Z,-0.20
2023-01-26T21:29:20.559Z,-0.20
2023-01-26T21:31:48.824Z,-0.20
2023-01-26T21:34:15.915Z,-0.10
2023-01-26T21:36:42.748Z,-0.10
2023-01-26T21:39:14.848Z,-0.10
2023-01-26T21:41:56.897Z,0.00
2023-01-26T21:44:31.096Z,0.00
2023-01-26T21:47:03.058Z,-0.10
2023-01-26T21:49:30.262Z,-0.10
2023-01-26T21:52:15.922Z,0.00
2023-01-26T21:54:42.750Z,-0.10
2023-01-26T21:57:29.833Z,-0.10
2023-01-26T21:59:56.803Z,-0.10
2023-01-26T22:02:23.740Z,-0.10
2023-01-26T22:04:50.752Z,-0.10
2023-01-26T22:07:17.527Z,-0.10
2023-01-26T22:09:44.266Z,-0.20
2023-01-26T22:12:10.990Z,-0.40
2023-01-26T22:14:37.686Z,-0.30
2023-01-26T22:17:04.480Z,-0.10
2023-01-26T22:19:31.221Z,-0.10
2023-01-26T22:22:02.265Z,-0.30
2023-01-26T22:24:29.072Z,-0.20
2023-01-26T22:26:55.883Z,-0.20
2023-01-26T22:29:22.582Z,-0.30
2023-01-26T22:31:50.567Z,-0.30
2023-01-26T22:34:17.401Z,-0.30
2023-01-26T22:36:44.349Z,-0.40
2023-01-26T22:39:12.259Z,-0.20
2023-01-26T22:41:39.095Z,-0.10
2023-01-26T22:44:06.142Z,-0.10
2023-01-26T22:46:33.095Z,-0.10
2023-01-26T22:49:00.394Z,-0.30
2023-01-26T22:51:31.033Z,-0.20
2023-01-26T22:53:59.487Z,-0.30
2023-01-26T22:56:27.256Z,-0.30
2023-01-26T22:59:00.522Z,-0.30
2023-01-26T23:01:29.498Z,-0.30
2023-01-26T23:03:57.284Z,-0.30
2023-01-26T23:06:26.431Z,-0.40
2023-01-26T23:08:58.182Z,-0.20
2023-01-26T23:11:27.038Z,0.00
2023-01-26T23:13:55.403Z,0.00
2023-01-26T23:16:23.660Z,-0.10
2023-01-26T23:18:54.145Z,-0.10
2023-01-26T23:21:21.576Z,-0.10
2023-01-26T23:23:48.529Z,-0.20
2023-01-26T23:26:15.700Z,-0.30
2023-01-26T23:28:44.653Z,-0.40
2023-01-26T23:31:13.981Z,-0.60
2023-01-26T23:33:41.264Z,-0.40
2023-01-26T23:36:09.984Z,-0.50
2023-01-26T23:38:36.748Z,-0.50
2023-01-26T23:41:05.477Z,-0.40
2023-01-26T23:43:32.393Z,-0.50
2023-01-26T23:45:59.262Z,-0.50
2023-01-26T23:48:26.824Z,-0.50
2023-01-26T23:50:58.193Z,-0.40
2023-01-26T23:53:24.974Z,-0.30
2023-01-26T23:55:51.816Z,-0.30
2023-01-26T23:58:19.468Z,-0.30
